Time;durP1;ratioP1;P1;durP2;ratioP2;P2;SDS_P1;SDS_P2;PMS_P1;PMS_P2;Temp;Humidity;BMP_temperature;BMP_pressure;BME280_temperature;BME280_humidity;BME280_pressure;Samples;Min_cycle;Max_cycle;Signal;HPM_P1;HPM_P2
2022/04/20 00:01:47;;;;;;;36.10;21.10;;;;;;;1.39;71.33;98510.96;219977;1271;22551;-71
2022/04/20 00:06:50;;;;;;;41.60;23.60;;;;;;;1.30;71.54;98506.64;220034;1271;22541;-70
2022/04/20 00:11:53;;;;;;;44.10;23.10;;;;;;;1.21;71.72;98508.88;220018;1271;25826;-70
2022/04/20 00:16:57;;;;;;;36.90;22.10;;;;;;;1.14;72.40;98507.53;220155;1270;22543;-70
2022/04/20 00:22:06;;;;;;;37.00;22.20;;;;;;;1.08;72.43;98501.72;220025;1270;23058;-70
2022/04/20 00:27:14;;;;;;;35.20;21.00;;;;;;;1.04;72.64;98494.42;220074;1270;22984;-69
2022/04/20 00:32:16;;;;;;;36.60;21.10;;;;;;;1.01;72.90;98486.06;220704;1269;22547;-71
2022/04/20 00:37:20;;;;;;;33.00;20.10;;;;;;;0.97;72.97;98482.08;220197;1270;24258;-70
2022/04/20 00:42:33;;;;;;;35.60;20.20;;;;;;;0.90;72.95;98480.34;220051;1270;24305;-69
2022/04/20 00:47:44;;;;;;;34.30;19.50;;;;;;;0.80;73.01;98479.27;220000;1271;24273;-70
2022/04/20 00:52:50;;;;;;;34.70;21.20;;;;;;;0.63;73.30;98475.09;219937;1270;22479;-68
2022/04/20 00:58:04;;;;;;;37.10;22.50;;;;;;;0.54;73.19;98477.91;219551;1271;22620;-69
2022/04/20 01:03:12;;;;;;;38.20;20.80;;;;;;;0.43;73.62;98473.61;220133;1271;23057;-69
2022/04/20 01:08:33;;;;;;;32.90;20.60;;;;;;;0.34;73.93;98471.60;219713;1271;22909;-69
2022/04/20 01:13:45;;;;;;;34.80;20.10;;;;;;;0.26;73.84;98472.42;219924;1268;25392;-69
2022/04/20 01:19:10;;;;;;;38.50;21.80;;;;;;;0.17;74.24;98471.36;220082;1271;22565;-73
2022/04/20 01:24:34;;;;;;;32.90;21.50;;;;;;;0.09;74.77;98479.40;220828;1271;22586;-72
2022/04/20 01:30:37;;;;;;;35.20;20.60;;;;;;;0.01;75.16;98471.20;220494;1271;22581;-74
2022/04/20 01:36:10;;;;;;;34.00;20.10;;;;;;;-0.05;75.43;98474.80;220397;1274;22541;-72
2022/04/20 01:41:16;;;;;;;36.40;22.00;;;;;;;-0.13;75.56;98479.98;221003;1271;22561;-72
2022/04/20 01:46:23;;;;;;;36.00;21.30;;;;;;;-0.21;75.89;98480.16;220475;1271;24378;-73
2022/04/20 01:51:54;;;;;;;36.00;21.10;;;;;;;-0.26;76.16;98475.50;220321;1271;22584;-72
2022/04/20 01:57:15;;;;;;;32.90;20.40;;;;;;;-0.31;76.30;98480.44;220677;1271;26388;-72
2022/04/20 02:02:40;;;;;;;31.00;19.90;;;;;;;-0.36;76.53;98477.47;220612;1271;22534;-73
2022/04/20 02:08:05;;;;;;;32.50;21.00;;;;;;;-0.41;76.39;98474.39;220496;1271;25256;-73
2022/04/20 02:13:30;;;;;;;28.10;18.30;;;;;;;-0.48;76.60;98474.88;220631;1271;25363;-72
2022/04/20 02:18:36;;;;;;;35.40;21.30;;;;;;;-0.53;76.70;98476.45;220410;1274;26418;-74
2022/04/20 02:24:10;;;;;;;33.90;20.90;;;;;;;-0.57;77.03;98479.86;220661;1271;22678;-74
2022/04/20 02:29:12;;;;;;;31.80;20.60;;;;;;;-0.60;76.93;98484.48;220788;1271;22543;-73
2022/04/20 02:34:16;;;;;;;31.60;21.00;;;;;;;-0.65;77.02;98478.14;220777;1271;22610;-73
2022/04/20 02:39:19;;;;;;;32.70;20.10;;;;;;;-0.68;77.38;98479.72;221050;1271;22618;-72
2022/04/20 02:44:28;;;;;;;28.50;18.20;;;;;;;-0.74;77.30;98482.38;221001;1271;22532;-72
2022/04/20 02:49:35;;;;;;;34.40;20.60;;;;;;;-0.78;77.30;98484.21;220460;1274;22639;-73
2022/04/20 02:54:38;;;;;;;30.80;20.20;;;;;;;-0.82;77.53;98483.45;221223;1271;26128;-72
2022/04/20 02:59:41;;;;;;;37.00;22.00;;;;;;;-0.88;77.74;98476.84;220947;1271;24142;-70
2022/04/20 03:04:47;;;;;;;35.90;21.80;;;;;;;-0.92;77.79;98470.71;220965;1271;22790;-73
2022/04/20 03:09:50;;;;;;;34.80;23.00;;;;;;;-0.97;77.97;98470.72;220871;1271;25349;-73
2022/04/20 03:14:57;;;;;;;36.90;22.10;;;;;;;-1.08;78.15;98462.52;220577;1271;25433;-74
2022/04/20 03:20:00;;;;;;;63.00;23.70;;;;;;;-1.26;77.71;98464.94;220833;1271;23877;-72
2022/04/20 03:25:06;;;;;;;35.20;20.70;;;;;;;-1.44;77.83;98459.66;220403;1273;22787;-72
2022/04/20 03:30:30;;;;;;;39.60;22.20;;;;;;;-1.59;78.20;98463.23;220953;1271;24303;-72
2022/04/20 03:35:38;;;;;;;48.60;22.70;;;;;;;-1.70;78.54;98458.58;220603;1274;22551;-72
2022/04/20 03:40:41;;;;;;;36.00;22.10;;;;;;;-1.83;78.73;98450.52;220720;1273;22597;-73
2022/04/20 03:45:44;;;;;;;38.80;22.40;;;;;;;-1.94;79.31;98445.62;220517;1273;22679;-72
2022/04/20 03:50:47;;;;;;;34.20;21.30;;;;;;;-2.03;79.74;98446.34;220863;1271;26362;-72
2022/04/20 03:55:50;;;;;;;38.50;23.60;;;;;;;-2.07;80.21;98441.47;220853;1271;25365;-73
2022/04/20 04:00:53;;;;;;;42.50;24.80;;;;;;;-2.07;80.61;98446.48;220821;1271;25384;-73
2022/04/20 04:05:57;;;;;;;44.90;25.20;;;;;;;-2.02;80.93;98452.83;220505;1272;24435;-72
2022/04/20 04:11:00;;;;;;;43.80;25.80;;;;;;;-1.92;81.13;98459.16;220974;1271;23210;-70
2022/04/20 04:16:04;;;;;;;44.40;26.60;;;;;;;-1.75;81.43;98461.36;221165;1271;26868;-72
2022/04/20 04:21:10;;;;;;;44.50;26.20;;;;;;;-1.54;81.60;98459.80;220977;1271;25583;-73
2022/04/20 04:26:20;;;;;;;44.00;26.20;;;;;;;-1.34;81.72;98459.61;220874;1271;23454;-72
2022/04/20 04:31:26;;;;;;;41.10;25.00;;;;;;;-1.17;81.59;98464.42;221070;1271;24233;-72
2022/04/20 04:36:29;;;;;;;41.60;25.30;;;;;;;-1.06;81.63;98463.01;221164;1271;22894;-71
2022/04/20 04:41:34;;;;;;;43.50;24.60;;;;;;;-0.88;81.27;98473.19;220544;1273;24796;-71
2022/04/20 04:52:06;;;;;;;43.30;25.80;;;;;;;-0.62;80.95;98479.43;220812;1271;26100;-73
2022/04/20 04:57:12;;;;;;;40.00;24.10;;;;;;;-0.52;80.73;98485.10;220763;1271;25242;-72
2022/04/20 05:02:16;;;;;;;42.00;24.90;;;;;;;-0.40;80.75;98484.32;220879;1271;26471;-72
2022/04/20 05:07:22;;;;;;;42.00;24.40;;;;;;;-0.25;80.61;98483.06;221203;1271;24632;-72
2022/04/20 05:12:30;;;;;;;38.80;22.50;;;;;;;-0.14;80.56;98485.54;220642;1271;22707;-73
2022/04/20 05:17:32;;;;;;;39.50;24.60;;;;;;;-0.06;80.42;98484.85;220763;1271;22561;-73
2022/04/20 05:22:39;;;;;;;34.70;22.20;;;;;;;0.07;80.43;98484.30;221000;1271;25359;-72
2022/04/20 05:27:42;;;;;;;38.00;22.90;;;;;;;0.19;80.62;98479.27;220649;1271;22571;-72
2022/04/20 05:32:58;;;;;;;39.50;23.80;;;;;;;0.36;80.49;98475.38;220529;1271;25802;-73
2022/04/20 05:43:34;;;;;;;35.70;22.90;;;;;;;0.73;80.51;98475.92;221302;1271;25264;-72
2022/04/20 05:48:51;;;;;;;33.50;22.30;;;;;;;0.83;80.18;98473.14;221190;1270;22694;-72
2022/04/20 05:54:08;;;;;;;35.00;23.00;;;;;;;0.93;80.35;98466.70;221222;1270;22805;-72
2022/04/20 05:59:18;;;;;;;39.90;24.10;;;;;;;1.07;80.34;98462.54;221218;1270;22560;-73
2022/04/20 06:04:25;;;;;;;41.10;24.70;;;;;;;1.21;80.68;98455.38;221755;1270;22617;-73
2022/04/20 06:09:42;;;;;;;34.90;23.30;;;;;;;1.44;80.83;98451.57;221361;1271;26408;-72
2022/04/20 06:14:49;;;;;;;34.80;22.80;;;;;;;1.78;81.00;98455.23;221070;1271;24782;-72
2022/04/20 06:20:18;;;;;;;34.20;23.30;;;;;;;2.07;80.20;98454.64;221436;1270;22543;-72
2022/04/20 06:25:40;;;;;;;33.60;23.80;;;;;;;2.28;79.77;98456.96;221519;1271;22534;-73
2022/04/20 06:37:56;;;;;;;30.70;21.50;;;;;;;2.44;79.14;98444.55;221137;1270;22861;-72
2022/04/20 06:43:21;;;;;;;34.10;23.10;;;;;;;2.50;78.88;98439.80;221247;1270;24235;-72
2022/04/20 06:48:53;;;;;;;33.60;21.70;;;;;;;2.58;78.77;98431.90;221140;1270;24264;-72
2022/04/20 06:59:56;;;;;;;32.00;21.70;;;;;;;2.91;78.73;98427.27;221075;1271;24400;-72
2022/04/20 07:05:15;;;;;;;32.00;22.30;;;;;;;3.02;78.21;98428.43;221286;1271;25370;-72
2022/04/20 07:10:41;;;;;;;31.10;21.30;;;;;;;3.10;78.00;98425.92;221294;1271;22753;-73
2022/04/20 07:15:48;;;;;;;30.80;21.00;;;;;;;3.21;77.95;98426.25;221284;1271;22567;-73
2022/04/20 07:20:51;;;;;;;28.20;20.10;;;;;;;3.30;77.58;98420.78;221078;1271;22577;-73
2022/04/20 07:26:15;;;;;;;30.80;21.20;;;;;;;3.32;77.13;98425.30;220754;1271;22566;-72
2022/04/20 07:31:37;;;;;;;27.30;19.20;;;;;;;3.31;77.16;98417.63;220999;1271;293680;-72
2022/04/20 07:37:11;;;;;;;27.00;19.10;;;;;;;3.38;77.19;98413.77;221146;1269;24806;-74
2022/04/20 07:42:52;;;;;;;24.00;17.20;;;;;;;3.45;77.10;98405.52;221029;1270;22478;-73
2022/04/20 07:48:07;;;;;;;25.50;17.90;;;;;;;3.57;77.06;98401.92;221438;1270;22537;-71
2022/04/20 07:53:33;;;;;;;25.00;18.10;;;;;;;3.71;76.86;98404.27;221045;1270;25209;-73
2022/04/20 07:58:50;;;;;;;28.20;19.20;;;;;;;3.75;76.39;98400.06;221251;1271;25381;-73
2022/04/20 08:04:27;;;;;;;26.70;18.10;;;;;;;3.82;76.54;98400.42;221387;1270;25437;-73
2022/04/20 08:09:35;;;;;;;25.00;17.00;;;;;;;3.79;76.08;98395.48;221234;1270;25914;-72
2022/04/20 08:14:51;;;;;;;25.30;17.60;;;;;;;3.76;75.96;98392.92;221101;1270;22722;-73
2022/04/20 08:20:13;;;;;;;25.60;17.80;;;;;;;3.80;76.15;98382.40;220925;1271;22539;-72
2022/04/20 08:25:29;;;;;;;25.90;17.60;;;;;;;4.00;76.31;98378.30;221243;1270;22637;-73
2022/04/20 08:30:37;;;;;;;24.40;17.50;;;;;;;4.19;76.25;98373.66;221090;1271;22548;-72
2022/04/20 08:35:52;;;;;;;25.00;16.80;;;;;;;4.40;75.75;98371.12;221318;1270;22553;-72
2022/04/20 08:41:19;;;;;;;24.00;17.10;;;;;;;4.63;75.66;98373.02;221203;1270;22550;-72
2022/04/20 08:46:48;;;;;;;22.80;16.80;;;;;;;4.86;75.42;98368.98;221282;1270;22571;-72
2022/04/20 08:57:45;;;;;;;22.10;15.90;;;;;;;5.52;74.79;98358.11;221103;1271;24151;-71
2022/04/20 09:03:00;;;;;;;20.90;14.70;;;;;;;5.81;73.85;98354.81;221254;1271;26005;-72
2022/04/20 09:08:12;;;;;;;23.90;15.60;;;;;;;6.00;73.57;98354.88;221150;1270;23294;-73
2022/04/20 09:13:31;;;;;;;19.80;15.10;;;;;;;6.34;73.56;98354.91;221161;1271;25252;-71
2022/04/20 09:18:35;;;;;;;19.60;14.40;;;;;;;6.47;71.76;98351.37;221146;1271;25367;-71
2022/04/20 09:23:39;;;;;;;17.80;13.80;;;;;;;6.50;71.74;98346.52;221149;1271;26481;-71
2022/04/20 09:29:10;;;;;;;19.60;13.70;;;;;;;6.54;71.15;98346.91;220976;1271;24141;-71
2022/04/20 09:35:05;;;;;;;17.30;14.20;;;;;;;6.53;70.88;98344.27;220636;1271;22590;-71
2022/04/20 09:40:00;;;;;;;17.10;13.60;;;;;;;6.60;70.45;98344.55;220823;1271;24368;-72
2022/04/20 09:45:12;;;;;;;17.40;12.90;;;;;;;6.69;70.64;98343.14;220997;1271;24255;-72
2022/04/20 09:50:30;;;;;;;18.40;12.70;;;;;;;6.84;70.21;98344.14;221045;1271;25361;-72
2022/04/20 09:55:36;;;;;;;16.20;11.80;;;;;;;6.90;69.56;98344.16;220954;1271;22688;-72
2022/04/20 10:00:46;;;;;;;16.10;11.70;;;;;;;6.92;68.82;98345.74;220580;1271;25477;-72
2022/04/20 10:05:48;;;;;;;18.80;13.80;;;;;;;6.93;68.88;98340.84;220565;1271;22710;-73
2022/04/20 10:10:55;;;;;;;17.60;12.70;;;;;;;7.07;68.85;98335.69;220747;1270;22689;-72
2022/04/20 10:16:10;;;;;;;17.50;12.80;;;;;;;7.19;68.14;98337.02;220929;1270;22796;-72
2022/04/20 10:21:14;;;;;;;15.60;12.20;;;;;;;7.24;67.88;98329.25;220413;1272;22544;-72
2022/04/20 10:26:21;;;;;;;14.80;11.60;;;;;;;7.30;67.87;98324.36;221057;1271;22593;-72
2022/04/20 10:31:44;;;;;;;14.10;11.30;;;;;;;7.44;67.05;98314.02;221137;1271;24393;-72
2022/04/20 10:37:21;;;;;;;15.20;11.40;;;;;;;7.67;66.64;98300.50;220916;1270;22587;-72
2022/04/20 10:43:16;;;;;;;14.60;10.90;;;;;;;7.96;65.74;98285.45;220887;1270;26391;-71
2022/04/20 10:48:19;;;;;;;13.50;10.50;;;;;;;8.27;65.71;98286.17;220709;1270;22560;-72
2022/04/20 10:53:22;;;;;;;11.00;9.30;;;;;;;8.53;64.73;98285.37;221162;1270;25938;-72
2022/04/20 10:58:26;;;;;;;12.00;9.00;;;;;;;8.66;63.47;98283.02;220898;1271;24317;-72
2022/04/20 11:04:06;;;;;;;7.90;6.80;;;;;;;8.88;62.84;98276.14;221349;1269;25402;-71
2022/04/20 11:09:49;;;;;;;8.20;6.80;;;;;;;9.03;62.09;98282.48;221289;1271;22557;-71
2022/04/20 11:20:22;;;;;;;9.00;7.30;;;;;;;9.11;59.69;98284.48;221210;1271;22586;-73
2022/04/20 11:25:25;;;;;;;11.60;7.90;;;;;;;9.07;59.67;98286.27;221883;1271;25327;-72
2022/04/20 11:30:28;;;;;;;9.00;8.10;;;;;;;8.98;59.18;98286.85;220892;1271;23051;-72
2022/04/20 11:35:31;;;;;;;8.70;7.80;;;;;;;8.86;58.97;98287.02;221152;1271;24331;-74
2022/04/20 11:40:41;;;;;;;9.20;8.30;;;;;;;8.68;58.78;98283.13;222874;1271;22561;-71
2022/04/20 11:46:12;;;;;;;10.20;7.90;;;;;;;8.60;59.19;98283.09;214429;1312;576320;-73
2022/04/20 11:53:19;;;;;;;10.00;8.60;;;;;;;8.33;58.99;98283.45;214102;1310;543138;-71
2022/04/20 11:58:38;;;;;;;9.40;8.40;;;;;;;8.14;59.72;98288.23;218679;1287;25330;-72
2022/04/20 12:03:45;;;;;;;9.30;8.30;;;;;;;8.12;60.11;98286.98;218821;1286;349639;-72
2022/04/20 12:08:58;;;;;;;10.50;8.60;;;;;;;8.19;60.04;98284.63;219129;1286;30591;-74
2022/04/20 12:14:04;;;;;;;10.70;9.10;;;;;;;8.14;60.21;98280.14;219264;1286;22607;-71
2022/04/20 12:19:30;;;;;;;9.40;8.20;;;;;;;8.10;60.41;98281.15;219062;1286;24277;-72
2022/04/20 12:24:33;;;;;;;11.10;9.30;;;;;;;8.04;60.72;98278.60;219084;1286;22712;-71
2022/04/20 12:29:36;;;;;;;10.10;8.90;;;;;;;7.96;61.10;98273.98;220253;1280;24274;-73
2022/04/20 12:34:54;;;;;;;8.40;7.60;;;;;;;7.93;61.31;98275.89;220518;1280;22556;-74
2022/04/20 12:40:19;;;;;;;9.60;8.60;;;;;;;7.84;61.37;98273.36;220612;1280;22546;-72
2022/04/20 12:45:26;;;;;;;9.90;8.50;;;;;;;7.77;61.69;98279.14;220771;1280;22554;-71
2022/04/20 12:50:38;;;;;;;9.10;8.20;;;;;;;7.67;61.89;98284.88;220178;1279;25907;-71
2022/04/20 13:02:01;;;;;;;10.20;8.50;;;;;;;7.53;61.77;98285.06;220523;1279;22710;-71
2022/04/20 13:06:46;;;;;;;10.90;8.90;;;;;;;7.30;62.66;98288.39;220812;1280;22557;-72
2022/04/20 13:12:01;;;;;;;11.20;9.20;;;;;;;7.22;63.14;98290.48;220800;1280;25023;-71
2022/04/20 13:17:09;;;;;;;9.40;8.40;;;;;;;7.13;63.65;98290.33;220924;1280;23197;-72
2022/04/20 13:22:14;;;;;;;10.50;9.00;;;;;;;7.13;63.72;98290.55;220607;1280;22619;-71
2022/04/20 13:32:38;;;;;;;9.90;8.40;;;;;;;7.18;63.84;98292.86;220778;1280;25302;-71
2022/04/20 13:37:40;;;;;;;9.80;8.60;;;;;;;7.25;64.20;98293.29;221648;1280;25259;-71
2022/04/20 13:42:43;;;;;;;12.70;8.80;;;;;;;7.25;64.11;98301.23;220665;1280;24390;-71
2022/04/20 13:47:47;;;;;;;11.50;9.10;;;;;;;7.24;64.39;98305.16;220653;1280;22566;-71
2022/04/20 13:52:53;;;;;;;11.70;9.40;;;;;;;7.28;64.81;98306.89;220657;1280;23123;-72
2022/04/20 13:57:56;;;;;;;11.30;9.00;;;;;;;7.31;64.89;98311.73;220311;1280;22596;-71
2022/04/20 14:02:59;;;;;;;10.00;8.10;;;;;;;7.41;65.05;98313.30;220938;1280;22606;-71
2022/04/20 14:08:02;;;;;;;7.80;7.00;;;;;;;7.52;64.86;98317.52;220351;1284;22806;-72
2022/04/20 14:13:06;;;;;;;9.50;8.30;;;;;;;7.66;64.62;98319.33;220373;1281;22585;-73
2022/04/20 14:18:09;;;;;;;10.00;8.60;;;;;;;7.76;64.48;98318.23;220503;1280;22678;-72
2022/04/20 14:23:14;;;;;;;9.10;8.10;;;;;;;7.86;64.54;98313.02;220750;1281;25252;-71
2022/04/20 14:33:38;;;;;;;8.80;7.90;;;;;;;7.70;63.77;98319.09;220530;1280;22585;-72
2022/04/20 14:38:43;;;;;;;9.30;8.30;;;;;;;7.59;63.91;98319.88;220314;1280;22559;-71
2022/04/20 14:43:48;;;;;;;12.50;9.10;;;;;;;7.56;64.04;98324.05;220301;1280;22543;-72
2022/04/20 14:48:50;;;;;;;10.00;8.20;;;;;;;7.55;64.44;98325.70;220420;1280;22567;-72
2022/04/20 14:53:53;;;;;;;12.40;8.60;;;;;;;7.59;64.49;98331.11;220313;1282;25259;-71
2022/04/20 14:59:01;;;;;;;9.50;8.40;;;;;;;7.54;64.40;98332.92;220321;1281;23091;-73
2022/04/20 15:04:07;;;;;;;10.50;8.90;;;;;;;7.44;64.69;98335.13;220489;1281;25258;-72
2022/04/20 15:09:12;;;;;;;9.60;8.20;;;;;;;7.33;64.81;98327.22;220314;1281;26460;-72
2022/04/20 15:14:17;;;;;;;9.90;8.20;;;;;;;7.25;65.43;98329.67;220250;1281;22569;-74
2022/04/20 15:19:21;;;;;;;12.30;9.40;;;;;;;7.20;65.24;98329.70;220352;1280;23078;-72
2022/04/20 15:24:25;;;;;;;13.10;10.00;;;;;;;7.16;65.19;98328.56;220333;1283;23131;-72
2022/04/20 15:29:27;;;;;;;10.70;9.30;;;;;;;7.11;65.82;98324.65;220835;1275;24548;-72
2022/04/20 15:34:32;;;;;;;12.30;10.00;;;;;;;7.10;65.90;98326.35;220765;1275;22553;-71
2022/04/20 15:39:35;;;;;;;10.50;8.90;;;;;;;7.11;66.11;98326.98;220672;1274;22552;-71
2022/04/20 15:44:57;;;;;;;13.00;10.40;;;;;;;7.07;66.03;98336.17;220857;1278;24361;-71
2022/04/20 15:50:01;;;;;;;11.10;8.50;;;;;;;6.97;66.45;98330.52;220767;1278;26442;-71
2022/04/20 16:00:39;;;;;;;12.70;10.00;;;;;;;6.84;66.77;98323.46;220861;1274;22582;-72
2022/04/20 16:05:45;;;;;;;11.50;9.70;;;;;;;6.79;66.87;98318.59;221042;1274;24426;-72
2022/04/20 16:10:51;;;;;;;14.20;10.70;;;;;;;6.72;66.91;98319.70;220870;1275;22555;-71
2022/04/20 16:15:56;;;;;;;13.90;10.80;;;;;;;6.64;67.13;98314.57;221096;1274;22686;-71
2022/04/20 16:21:00;;;;;;;13.40;10.00;;;;;;;6.60;67.31;98312.98;220866;1275;22588;-73
2022/04/20 16:26:04;;;;;;;12.60;10.70;;;;;;;6.59;67.68;98312.41;220947;1274;22551;-72
2022/04/20 16:31:08;;;;;;;14.40;11.20;;;;;;;6.57;67.91;98316.56;221072;1274;24270;-72
2022/04/20 16:36:12;;;;;;;14.00;11.20;;;;;;;6.57;67.99;98320.20;220680;1277;22559;-72
2022/04/20 16:41:16;;;;;;;15.00;12.20;;;;;;;6.57;68.02;98323.39;220311;1275;25358;-72
2022/04/20 16:46:20;;;;;;;14.70;12.00;;;;;;;6.54;68.48;98326.45;220353;1274;23769;-72
2022/04/20 16:51:24;;;;;;;14.80;12.40;;;;;;;6.48;68.35;98329.42;220153;1275;24304;-72
2022/04/20 16:56:29;;;;;;;16.70;13.00;;;;;;;6.41;69.01;98328.45;220323;1277;22556;-71
2022/04/20 17:01:35;;;;;;;15.70;12.50;;;;;;;6.36;69.15;98320.27;220371;1275;24263;-71
2022/04/20 17:06:39;;;;;;;15.60;13.10;;;;;;;6.32;69.18;98315.59;220499;1274;22577;-72
2022/04/20 17:11:43;;;;;;;14.40;12.00;;;;;;;6.29;69.56;98315.08;220591;1274;22696;-71
2022/04/20 17:16:46;;;;;;;15.60;12.00;;;;;;;6.29;69.66;98327.42;220466;1274;25255;-72
2022/04/20 17:27:12;;;;;;;17.70;13.40;;;;;;;6.29;69.81;98346.40;220471;1275;22548;-72
2022/04/20 17:32:20;;;;;;;19.20;14.30;;;;;;;6.26;69.91;98350.79;220446;1275;22687;-71
2022/04/20 17:37:23;;;;;;;20.60;14.60;;;;;;;6.21;70.00;98354.95;220515;1274;25687;-73
2022/04/20 17:42:27;;;;;;;18.00;13.00;;;;;;;6.17;70.17;98351.23;220516;1274;22557;-72
2022/04/20 17:47:31;;;;;;;19.60;13.40;;;;;;;6.16;70.30;98355.59;220634;1274;22618;-72
2022/04/20 17:52:37;;;;;;;17.50;14.10;;;;;;;6.13;70.39;98347.27;220076;1278;25321;-72
2022/04/20 17:57:44;;;;;;;18.60;14.40;;;;;;;6.10;70.58;98351.77;220424;1274;25330;-72
2022/04/20 18:02:48;;;;;;;18.80;14.10;;;;;;;6.09;70.79;98354.17;220305;1276;22544;-72
2022/04/20 18:07:53;;;;;;;18.40;14.10;;;;;;;6.07;70.82;98354.02;220649;1274;22545;-72
2022/04/20 18:13:04;;;;;;;20.10;15.70;;;;;;;6.06;70.91;98348.75;220538;1275;25391;-72
2022/04/20 18:18:09;;;;;;;19.50;14.20;;;;;;;6.06;71.04;98355.98;220297;1275;22604;-72
2022/04/20 18:23:14;;;;;;;19.70;14.20;;;;;;;6.05;71.02;98352.64;220075;1276;26407;-72
2022/04/20 18:28:17;;;;;;;20.10;15.50;;;;;;;6.01;71.22;98349.98;220496;1274;24471;-72
2022/04/20 18:33:20;;;;;;;23.60;17.20;;;;;;;5.96;71.15;98350.98;220498;1274;22563;-72
2022/04/20 18:38:24;;;;;;;20.10;13.30;;;;;;;5.91;71.37;98354.96;220256;1274;22739;-72
2022/04/20 18:43:39;;;;;;;16.50;13.00;;;;;;;5.85;71.58;98342.05;220391;1274;24438;-71
2022/04/20 18:48:44;;;;;;;14.90;12.00;;;;;;;5.80;71.52;98335.25;220379;1275;23065;-73
2022/04/20 18:59:11;;;;;;;12.60;10.70;;;;;;;5.72;71.70;98325.91;220451;1274;22570;-72
2022/04/20 19:09:37;;;;;;;14.00;11.60;;;;;;;5.66;72.02;98310.91;220451;1275;25251;-73
2022/04/20 19:14:40;;;;;;;18.60;12.90;;;;;;;5.63;72.08;98315.87;220223;1275;23065;-72
2022/04/20 19:19:44;;;;;;;18.20;14.50;;;;;;;5.60;72.07;98313.95;220273;1274;25418;-72
2022/04/20 19:24:48;;;;;;;19.80;15.00;;;;;;;5.58;72.28;98311.57;220440;1274;24325;-72
2022/04/20 19:29:51;;;;;;;27.20;17.90;;;;;;;5.55;72.33;98305.08;220446;1275;25393;-70
2022/04/20 19:34:53;;;;;;;28.50;18.30;;;;;;;5.54;72.48;98298.55;220264;1274;24265;-71
2022/04/20 19:39:56;;;;;;;27.10;17.60;;;;;;;5.53;72.70;98300.41;220278;1274;22549;-71
2022/04/20 19:44:59;;;;;;;23.60;17.80;;;;;;;5.50;72.73;98299.40;220219;1275;22920;-72
2022/04/20 19:50:13;;;;;;;27.70;18.10;;;;;;;5.51;72.62;98303.06;220330;1274;22591;-73
2022/04/20 19:55:22;;;;;;;28.70;21.00;;;;;;;5.48;72.91;98299.18;220255;1274;22703;-72
2022/04/20 20:00:47;;;;;;;24.50;19.10;;;;;;;5.47;72.86;98303.80;220380;1274;22704;-72
2022/04/20 20:11:17;;;;;;;22.60;17.40;;;;;;;5.45;73.20;98301.20;220020;1276;22577;-71
2022/04/20 20:16:25;;;;;;;24.80;18.30;;;;;;;5.43;72.93;98300.99;220226;1275;22648;-72
2022/04/20 20:21:31;;;;;;;26.90;18.50;;;;;;;5.40;73.16;98299.93;220353;1275;27561;-72
2022/04/20 20:31:57;;;;;;;27.50;18.70;;;;;;;5.32;73.26;98295.67;220179;1274;24440;-71
2022/04/20 20:36:59;;;;;;;24.20;17.10;;;;;;;5.26;73.45;98302.58;220233;1274;23863;-73
2022/04/20 20:42:06;;;;;;;24.70;17.90;;;;;;;5.22;73.65;98309.01;220235;1274;25271;-72
2022/04/20 20:47:12;;;;;;;24.60;17.20;;;;;;;5.19;73.64;98300.24;220341;1275;25312;-72
2022/04/20 20:52:18;;;;;;;24.20;17.80;;;;;;;5.14;73.78;98305.44;220164;1274;25267;-71
2022/04/20 20:57:23;;;;;;;22.20;16.70;;;;;;;5.10;73.74;98314.56;220057;1276;24668;-72
2022/04/20 21:02:27;;;;;;;23.70;17.30;;;;;;;5.06;73.83;98316.79;220461;1274;22576;-72
2022/04/20 21:07:30;;;;;;;22.90;17.10;;;;;;;5.02;73.89;98325.17;220309;1274;22559;-72
2022/04/20 21:12:33;;;;;;;25.00;17.40;;;;;;;4.98;74.08;98327.08;220434;1274;22577;-70
2022/04/20 21:17:35;;;;;;;24.20;18.20;;;;;;;4.96;74.01;98328.45;220379;1274;22624;-72
2022/04/20 21:22:38;;;;;;;20.50;16.70;;;;;;;4.96;74.34;98326.48;220146;1274;25420;-72
2022/04/20 21:27:42;;;;;;;23.90;17.00;;;;;;;4.94;74.30;98321.60;220223;1274;25416;-71
2022/04/20 21:32:45;;;;;;;25.40;18.10;;;;;;;4.91;74.49;98321.80;220122;1274;24357;-72
2022/04/20 21:37:48;;;;;;;30.00;19.50;;;;;;;4.86;74.44;98319.94;220344;1274;25344;-72
2022/04/20 21:42:50;;;;;;;31.20;20.40;;;;;;;4.78;74.60;98326.33;220154;1274;24295;-71
2022/04/20 21:47:53;;;;;;;32.20;21.00;;;;;;;4.75;74.93;98324.20;220215;1275;24395;-72
2022/04/20 21:52:59;;;;;;;36.30;22.40;;;;;;;4.75;74.95;98317.41;220101;1274;22577;-72
2022/04/20 21:58:03;;;;;;;34.20;22.50;;;;;;;4.73;75.22;98327.60;220291;1275;24320;-71
2022/04/20 22:08:33;;;;;;;37.10;24.00;;;;;;;4.75;75.39;98335.61;220145;1276;23301;-72
2022/04/20 22:13:36;;;;;;;45.20;28.60;;;;;;;4.71;75.44;98339.16;220477;1275;24271;-72
2022/04/20 22:18:40;;;;;;;40.40;26.50;;;;;;;4.66;75.52;98342.48;220381;1274;24450;-73
2022/04/20 22:23:42;;;;;;;36.70;24.70;;;;;;;4.63;75.85;98341.41;220293;1276;23179;-71
2022/04/20 22:28:45;;;;;;;33.60;24.00;;;;;;;4.63;76.08;98333.30;220127;1277;22541;-71
2022/04/20 22:33:48;;;;;;;35.90;24.40;;;;;;;4.64;76.17;98324.16;220469;1276;22644;-72
2022/04/20 22:38:51;;;;;;;47.00;31.00;;;;;;;4.61;76.18;98319.00;220132;1274;22664;-71
2022/04/20 22:43:55;;;;;;;44.30;28.00;;;;;;;4.58;76.28;98316.08;220220;1274;22576;-72
2022/04/20 22:49:00;;;;;;;40.80;25.20;;;;;;;4.59;76.55;98314.45;220473;1274;22541;-72
2022/04/20 22:54:03;;;;;;;43.70;28.20;;;;;;;4.58;76.60;98309.19;220372;1274;22603;-72
2022/04/20 22:59:05;;;;;;;42.80;27.40;;;;;;;4.58;76.62;98306.27;220213;1274;24472;-72
2022/04/20 23:04:08;;;;;;;43.80;26.90;;;;;;;4.59;76.71;98306.55;220358;1276;24234;-72
2022/04/20 23:09:11;;;;;;;39.70;26.00;;;;;;;4.60;76.69;98305.06;220368;1274;23485;-71
2022/04/20 23:14:14;;;;;;;40.20;25.70;;;;;;;4.58;76.76;98302.28;220063;1274;23021;-70
2022/04/20 23:19:16;;;;;;;40.90;27.10;;;;;;;4.57;76.87;98305.67;220254;1274;22570;-70
2022/04/20 23:30:04;;;;;;;39.70;26.40;;;;;;;4.48;77.03;98290.79;220253;1274;24256;-72
2022/04/20 23:35:08;;;;;;;39.70;26.50;;;;;;;4.43;77.24;98293.58;220403;1274;25457;-72
2022/04/20 23:40:20;;;;;;;33.90;24.20;;;;;;;4.42;77.18;98291.52;220428;1274;22567;-72
2022/04/20 23:45:26;;;;;;;33.00;23.10;;;;;;;4.40;77.30;98287.95;220358;1274;24189;-72
2022/04/20 23:50:29;;;;;;;36.20;24.50;;;;;;;4.39;77.42;98282.33;220451;1276;25346;-71
2022/04/20 23:55:34;;;;;;;32.50;22.20;;;;;;;4.39;77.49;98282.54;220470;1275;22761;-71
